JAU weather

Colonel Tommy C Stiner Airfield
Jacksboro, Tennessee, United States

Public forecast

Using degrees Fahrenheit for public forecast. Weather courtesy of forecast.io.

METAR (pilot weather report)

Retrieved 2019/05/23 10:35 UTC (0 seconds ago):

KJAU 231035Z AUTO 00000KT 10SM FEW060 17/16 A3024 RMK A01

TAF (pilot weather forecast)

Closest forecast is McGhee Tyson Airport, 32.5 nm (60.2 km) SSE. Retrieved 2019/05/23 06:24 UTC (4 hours ago):

TAF KTYS 230521Z 2306/2406 21004KT P6SM FEW070 FM231600 23010KT P6SM FEW060 FM240000 23004KT P6SM FEW070